Time;durP1;ratioP1;P1;durP2;ratioP2;P2;SDS_P1;SDS_P2;PMS_P1;PMS_P2;Temp;Humidity;BMP_temperature;BMP_pressure;BME280_temperature;BME280_humidity;BME280_pressure;Samples;Min_cycle;Max_cycle;Signal;HPM_P1;HPM_P2
2022/05/02 00:01:47;;;;;;;7.17;5.00;;;9.00;75.50;;;;;;4808820;29;20179;-84
2022/05/02 00:04:12;;;;;;;6.43;5.30;;;9.00;75.50;;;;;;4825135;29;20176;-85
2022/05/02 00:06:38;;;;;;;5.83;4.90;;;9.00;75.50;;;;;;4825155;29;20648;-83
2022/05/02 00:09:04;;;;;;;8.33;5.20;;;9.00;76.10;;;;;;4825198;29;20203;-83
2022/05/02 00:11:29;;;;;;;6.03;5.43;;;9.00;76.10;;;;;;4808620;29;20720;-84
2022/05/02 00:13:55;;;;;;;7.53;5.60;;;9.10;76.00;;;;;;4808670;29;20678;-83
2022/05/02 00:16:20;;;;;;;6.17;5.57;;;9.00;76.10;;;;;;4825242;29;20186;-83
2022/05/02 00:18:46;;;;;;;6.47;5.03;;;8.90;76.50;;;;;;4825201;29;20208;-85
2022/05/02 00:21:11;;;;;;;5.40;4.90;;;8.90;76.60;;;;;;4825304;29;20184;-84
2022/05/02 00:23:37;;;;;;;9.07;5.50;;;9.00;76.50;;;;;;4824489;29;20248;-84
2022/05/02 00:26:02;;;;;;;6.00;5.40;;;9.00;76.50;;;;;;4808416;29;20680;-83
2022/05/02 00:28:28;;;;;;;9.17;5.30;;;9.10;76.30;;;;;;4824798;29;20211;-83
2022/05/02 00:30:53;;;;;;;7.43;5.43;;;9.00;76.00;;;;;;4808285;29;20188;-84
2022/05/02 00:33:20;;;;;;;6.07;5.27;;;9.10;75.90;;;;;;4824935;29;20204;-84
2022/05/02 00:35:46;;;;;;;7.43;4.83;;;9.00;75.80;;;;;;4824739;29;20204;-84
2022/05/02 00:38:11;;;;;;;10.87;5.67;;;9.00;75.60;;;;;;4808362;29;20206;-84
2022/05/02 00:40:37;;;;;;;7.10;5.23;;;9.00;75.60;;;;;;4808270;29;20211;-84
2022/05/02 00:43:02;;;;;;;7.20;5.53;;;9.00;75.30;;;;;;4824855;29;20202;-85
2022/05/02 00:45:28;;;;;;;10.53;5.87;;;9.00;75.20;;;;;;4824894;29;20187;-84
2022/05/02 00:47:55;;;;;;;5.87;5.20;;;9.00;75.30;;;;;;4808427;29;20192;-83
2022/05/02 00:50:33;;;;;;;7.90;5.63;;;9.00;75.50;;;;;;4824597;29;20208;-83
2022/05/02 00:52:58;;;;;;;8.67;6.27;;;8.90;76.10;;;;;;4808443;29;20631;-84
2022/05/02 00:55:24;;;;;;;6.40;5.63;;;8.80;76.60;;;;;;4824914;29;20243;-84
2022/05/02 00:57:50;;;;;;;7.33;5.20;;;8.80;76.70;;;;;;4808545;29;20735;-84
2022/05/02 01:00:15;;;;;;;9.53;5.70;;;8.80;76.90;;;;;;4808276;29;20204;-83
2022/05/02 01:02:41;;;;;;;6.80;5.40;;;8.80;76.80;;;;;;4808095;29;20223;-83
2022/05/02 01:05:07;;;;;;;6.03;5.40;;;8.80;76.50;;;;;;4808102;29;20240;-83
2022/05/02 01:07:32;;;;;;;9.07;5.77;;;8.80;76.40;;;;;;4808916;29;20236;-82
2022/05/02 01:09:58;;;;;;;7.27;5.37;;;8.70;76.50;;;;;;4825001;29;20252;-85
2022/05/02 01:12:25;;;;;;;10.63;5.83;;;8.70;76.80;;;;;;4809131;29;20587;-84
2022/05/02 01:14:57;;;;;;;7.30;6.37;;;8.80;76.70;;;;;;4824765;29;20693;-84
2022/05/02 01:17:23;;;;;;;7.47;5.90;;;8.80;77.40;;;;;;4808443;29;20194;-84
2022/05/02 01:19:52;;;;;;;7.90;6.00;;;8.80;78.10;;;;;;4807938;29;20715;-83
2022/05/02 01:22:18;;;;;;;7.70;6.33;;;8.70;78.40;;;;;;4807884;29;20180;-84
2022/05/02 01:24:46;;;;;;;8.13;5.63;;;8.70;78.60;;;;;;4807503;29;20191;-86
2022/05/02 01:27:12;;;;;;;7.17;5.40;;;8.70;79.00;;;;;;4824319;29;20260;-85
2022/05/02 01:29:41;;;;;;;6.63;5.60;;;8.70;79.00;;;;;;4807412;29;20234;-85
2022/05/02 01:32:09;;;;;;;6.80;5.60;;;8.70;79.00;;;;;;4807475;29;20208;-84
2022/05/02 01:34:36;;;;;;;6.27;5.67;;;8.70;79.00;;;;;;4807617;29;20279;-85
2022/05/02 01:37:03;;;;;;;6.90;5.47;;;8.60;78.80;;;;;;4809796;29;20658;-84
2022/05/02 01:39:29;;;;;;;6.87;5.90;;;8.50;79.00;;;;;;4810602;29;20742;-85
2022/05/02 01:41:58;;;;;;;6.23;5.33;;;8.50;79.00;;;;;;4810818;29;20192;-84
2022/05/02 01:44:24;;;;;;;7.87;5.60;;;8.30;78.40;;;;;;4826985;29;20180;-85
2022/05/02 01:46:51;;;;;;;9.53;5.90;;;8.20;78.90;;;;;;4827031;29;20189;-84
2022/05/02 01:49:16;;;;;;;10.33;5.83;;;8.10;79.00;;;;;;4826857;29;20705;-85
2022/05/02 01:51:42;;;;;;;9.67;5.90;;;8.00;79.60;;;;;;4811099;29;20224;-85
2022/05/02 01:54:07;;;;;;;6.43;5.83;;;7.80;80.00;;;;;;4826829;29;20226;-84
2022/05/02 01:56:33;;;;;;;10.23;6.03;;;7.80;80.00;;;;;;4810571;29;20188;-85
2022/05/02 01:58:58;;;;;;;8.90;6.40;;;7.90;79.70;;;;;;4810363;29;20634;-84
2022/05/02 02:01:24;;;;;;;7.77;6.50;;;7.70;79.70;;;;;;4826812;29;20184;-84
2022/05/02 02:03:50;;;;;;;9.60;6.57;;;7.60;80.20;;;;;;4810529;29;20177;-85
2022/05/02 02:06:15;;;;;;;9.63;5.67;;;7.40;80.50;;;;;;4810371;29;20189;-85
2022/05/02 02:08:41;;;;;;;9.07;6.10;;;7.50;81.00;;;;;;4810290;29;20204;-85
2022/05/02 02:11:08;;;;;;;8.50;6.20;;;7.60;80.30;;;;;;4810304;29;20191;-85
2022/05/02 02:13:35;;;;;;;9.27;6.73;;;7.60;80.20;;;;;;4826498;29;20179;-85
2022/05/02 02:16:01;;;;;;;7.67;6.03;;;7.60;79.70;;;;;;4810101;29;20216;-84
2022/05/02 02:18:27;;;;;;;9.23;6.57;;;7.50;79.60;;;;;;4810080;29;20210;-84
2022/05/02 02:20:54;;;;;;;6.03;5.43;;;7.50;80.20;;;;;;4826484;29;20183;-85
2022/05/02 02:23:21;;;;;;;9.67;5.63;;;7.50;79.90;;;;;;4826285;29;20244;-85
2022/05/02 02:25:47;;;;;;;7.43;5.77;;;7.50;79.40;;;;;;4810044;29;20188;-83
2022/05/02 02:28:14;;;;;;;6.67;5.20;;;7.40;78.90;;;;;;4809927;29;20278;-83
2022/05/02 02:30:40;;;;;;;7.30;5.60;;;7.30;78.50;;;;;;4826243;29;20213;-84
2022/05/02 02:33:05;;;;;;;7.63;6.03;;;7.30;78.40;;;;;;4809903;29;20591;-84
2022/05/02 02:35:31;;;;;;;5.97;5.20;;;7.30;78.20;;;;;;4809873;29;20271;-84
2022/05/02 02:37:57;;;;;;;6.97;4.80;;;7.20;78.00;;;;;;4809869;29;20195;-84
2022/05/02 02:40:23;;;;;;;6.43;5.17;;;7.20;77.80;;;;;;4809719;29;20215;-85
2022/05/02 02:42:49;;;;;;;7.97;5.87;;;7.10;77.70;;;;;;4826308;29;20203;-84
2022/05/02 02:45:15;;;;;;;7.33;5.53;;;7.00;77.50;;;;;;4809733;29;20195;-84
2022/05/02 02:47:42;;;;;;;6.30;5.03;;;6.90;77.30;;;;;;4809323;29;20283;-84
2022/05/02 02:50:09;;;;;;;5.60;5.10;;;6.90;77.10;;;;;;4809568;29;20204;-84
2022/05/02 02:52:34;;;;;;;6.10;5.23;;;6.80;76.80;;;;;;4809607;29;20184;-85
2022/05/02 02:55:00;;;;;;;7.30;5.63;;;6.70;76.70;;;;;;4809499;29;20208;-84
2022/05/02 02:57:25;;;;;;;7.80;6.20;;;6.60;76.60;;;;;;4825788;29;20176;-85
2022/05/02 02:59:51;;;;;;;5.90;5.27;;;6.60;76.50;;;;;;4809411;29;20243;-84
2022/05/02 03:02:16;;;;;;;8.43;5.90;;;6.50;77.10;;;;;;4809539;29;20180;-84
2022/05/02 03:07:28;;;;;;;10.00;5.67;;;6.20;78.10;;;;;;4826240;29;20179;-85
2022/05/02 03:09:54;;;;;;;8.90;5.93;;;5.70;79.30;;;;;;4825658;29;20265;-84
2022/05/02 03:12:20;;;;;;;8.70;6.83;;;5.60;80.10;;;;;;4810100;29;20192;-84
2022/05/02 03:14:46;;;;;;;8.50;6.13;;;5.70;80.70;;;;;;4825631;29;20275;-84
2022/05/02 03:17:12;;;;;;;7.97;6.53;;;5.50;81.00;;;;;;4825641;29;20194;-84
2022/05/02 03:19:38;;;;;;;8.03;6.50;;;5.30;81.60;;;;;;4825617;29;20230;-84
2022/05/02 03:22:04;;;;;;;12.80;7.07;;;5.30;82.10;;;;;;4809043;29;20711;-84
2022/05/02 03:24:30;;;;;;;8.27;6.23;;;5.40;82.20;;;;;;4808936;29;20565;-84
2022/05/02 03:26:56;;;;;;;7.90;6.17;;;5.50;82.20;;;;;;4809094;29;20191;-84
2022/05/02 03:29:21;;;;;;;7.20;6.50;;;5.50;81.90;;;;;;4825358;29;20742;-84
2022/05/02 03:31:47;;;;;;;7.83;6.20;;;5.50;81.80;;;;;;4808825;29;20214;-85
2022/05/02 03:34:12;;;;;;;9.00;6.20;;;5.60;81.60;;;;;;4825250;29;20215;-84
2022/05/02 03:36:38;;;;;;;7.83;5.87;;;5.50;81.20;;;;;;4808799;29;20560;-84
2022/05/02 03:39:04;;;;;;;6.90;6.17;;;5.50;81.00;;;;;;4825169;29;20199;-84
2022/05/02 03:41:30;;;;;;;8.67;6.17;;;5.50;80.70;;;;;;4808776;29;20207;-84
2022/05/02 03:43:56;;;;;;;8.37;6.77;;;5.60;80.50;;;;;;4808678;29;20642;-84
2022/05/02 03:46:22;;;;;;;6.67;5.73;;;5.50;80.10;;;;;;4825538;29;20271;-85
2022/05/02 03:48:48;;;;;;;7.73;5.87;;;5.50;79.90;;;;;;4825422;29;20237;-84
2022/05/02 03:51:13;;;;;;;7.60;5.93;;;5.40;79.90;;;;;;4808625;29;20744;-84
2022/05/02 03:53:39;;;;;;;8.80;6.90;;;5.40;79.70;;;;;;4825043;29;20557;-84
2022/05/02 03:56:05;;;;;;;10.80;7.37;;;5.40;80.20;;;;;;4808489;29;20221;-84
2022/05/02 03:58:31;;;;;;;13.43;6.93;;;5.30;81.90;;;;;;4824209;29;20291;-84
2022/05/02 04:00:57;;;;;;;8.27;6.23;;;5.40;81.90;;;;;;4808379;29;20184;-84
2022/05/02 04:03:22;;;;;;;8.23;6.30;;;5.40;81.40;;;;;;4808523;29;20187;-84
2022/05/02 04:05:48;;;;;;;7.20;6.50;;;5.40;80.90;;;;;;4808963;29;20251;-84
2022/05/02 04:08:14;;;;;;;7.03;6.20;;;5.30;80.70;;;;;;4808302;29;20559;-84
2022/05/02 04:10:39;;;;;;;7.80;6.47;;;5.30;80.60;;;;;;4824753;29;20289;-85
2022/05/02 04:13:05;;;;;;;10.47;7.20;;;5.30;80.50;;;;;;4824923;29;20659;-84
2022/05/02 04:15:31;;;;;;;8.57;6.60;;;5.30;81.20;;;;;;4808235;29;20211;-84
2022/05/02 04:17:58;;;;;;;8.27;7.10;;;5.30;81.10;;;;;;4824554;29;20563;-84
2022/05/02 04:20:24;;;;;;;9.33;7.63;;;5.20;81.30;;;;;;4824528;29;20199;-84
2022/05/02 04:22:49;;;;;;;7.50;6.60;;;5.20;82.30;;;;;;4808078;29;20542;-84
2022/05/02 04:25:15;;;;;;;6.97;5.77;;;4.90;82.00;;;;;;4824606;29;20212;-84
2022/05/02 04:27:41;;;;;;;6.53;5.93;;;5.00;82.10;;;;;;4824561;29;20229;-84
2022/05/02 04:30:07;;;;;;;8.10;7.27;;;5.20;81.70;;;;;;4824564;29;20226;-84
2022/05/02 04:32:32;;;;;;;10.70;6.93;;;5.30;81.10;;;;;;4824493;29;20646;-84
2022/05/02 04:34:58;;;;;;;9.07;6.67;;;5.60;80.70;;;;;;4807956;29;20316;-84
2022/05/02 04:37:24;;;;;;;9.13;7.07;;;5.70;80.60;;;;;;4808132;29;20219;-85
2022/05/02 04:39:53;;;;;;;13.60;8.03;;;5.90;80.40;;;;;;4824179;29;20230;-84
2022/05/02 04:42:19;;;;;;;11.03;7.50;;;6.20;80.20;;;;;;4808015;29;20191;-84
2022/05/02 04:44:44;;;;;;;12.43;7.63;;;6.30;79.90;;;;;;4824505;29;20274;-84
2022/05/02 04:47:10;;;;;;;13.00;7.60;;;6.40;79.80;;;;;;4824358;29;20195;-84
2022/05/02 04:49:35;;;;;;;11.07;7.53;;;6.40;79.70;;;;;;4824234;29;20692;-85
2022/05/02 04:52:01;;;;;;;10.80;8.90;;;6.40;79.80;;;;;;4824604;29;20651;-84
2022/05/02 04:54:26;;;;;;;15.07;8.63;;;6.40;80.20;;;;;;4807688;29;20210;-84
2022/05/02 04:56:52;;;;;;;10.43;8.60;;;6.50;80.80;;;;;;4807805;29;20188;-84
2022/05/02 04:59:17;;;;;;;14.00;9.20;;;6.40;81.50;;;;;;4824102;29;20196;-85
2022/05/02 05:01:44;;;;;;;21.17;17.10;;;6.50;81.60;;;;;;4808188;29;20184;-85
2022/05/02 05:04:09;;;;;;;18.40;15.40;;;6.50;81.70;;;;;;4824118;29;20232;-85
2022/05/02 05:06:35;;;;;;;17.43;14.93;;;6.50;81.80;;;;;;4807934;29;20179;-85
2022/05/02 05:09:02;;;;;;;16.00;12.27;;;6.60;82.40;;;;;;4824244;29;20262;-85
2022/05/02 05:11:50;;;;;;;15.33;10.37;;;6.70;82.60;;;;;;4827148;29;20205;-84
2022/05/02 05:17:54;;;;;;;14.53;12.20;;;7.00;82.90;;;;;;4827496;29;20707;-84
2022/05/02 05:20:28;;;;;;;16.13;12.90;;;7.10;82.80;;;;;;4827361;29;20553;-85
2022/05/02 05:23:29;;;;;;;10.60;9.17;;;7.10;82.50;;;;;;4811109;29;20180;-84
2022/05/02 05:26:20;;;;;;;14.00;9.40;;;7.30;83.60;;;;;;4827502;29;20211;-85
2022/05/02 05:29:04;;;;;;;13.10;9.87;;;7.60;84.90;;;;;;4827149;29;20200;-85
2022/05/02 05:31:33;;;;;;;12.17;9.80;;;7.70;85.00;;;;;;4827519;29;20169;-85
2022/05/02 05:34:17;;;;;;;16.33;9.50;;;7.70;85.10;;;;;;4827111;29;20187;-84
2022/05/02 05:36:58;;;;;;;11.50;9.30;;;7.80;85.10;;;;;;4827114;29;20168;-85
2022/05/02 05:39:35;;;;;;;13.27;9.23;;;7.90;85.40;;;;;;4827064;29;20203;-85
2022/05/02 05:42:07;;;;;;;13.27;9.83;;;7.90;85.40;;;;;;4827151;29;20200;-84
2022/05/02 05:44:53;;;;;;;14.13;9.83;;;8.00;85.30;;;;;;4827001;29;20160;-84
2022/05/02 05:47:19;;;;;;;12.60;8.60;;;8.10;85.20;;;;;;4810679;29;20278;-84
2022/05/02 05:50:21;;;;;;;12.23;8.10;;;8.00;84.70;;;;;;4810589;29;20291;-84
2022/05/02 05:53:24;;;;;;;20.30;9.43;;;8.20;84.70;;;;;;4810628;29;20214;-84
2022/05/02 05:56:27;;;;;;;9.33;7.60;;;8.30;84.40;;;;;;4810649;29;20203;-84
2022/05/02 05:59:09;;;;;;;14.23;7.83;;;8.20;84.10;;;;;;4826643;29;20623;-84
2022/05/02 06:02:03;;;;;;;11.57;8.60;;;8.30;83.80;;;;;;4810661;29;20191;-85
2022/05/02 06:04:33;;;;;;;9.33;8.27;;;8.20;83.80;;;;;;4810333;29;20180;-84
2022/05/02 06:07:00;;;;;;;15.27;9.67;;;8.30;84.20;;;;;;4810402;29;20194;-84
2022/05/02 06:09:30;;;;;;;12.53;9.40;;;8.40;84.10;;;;;;4826511;29;20687;-85
2022/05/02 06:11:58;;;;;;;16.80;11.03;;;8.50;83.90;;;;;;4826917;29;20171;-87
2022/05/02 06:14:30;;;;;;;16.37;8.50;;;8.70;84.00;;;;;;4826555;29;20204;-86
2022/05/02 06:19:44;;;;;;;15.33;8.17;;;9.00;83.50;;;;;;4827137;29;20238;-87
2022/05/02 06:22:11;;;;;;;10.00;6.80;;;9.20;82.90;;;;;;4809575;29;20242;-86
2022/05/02 06:24:39;;;;;;;11.80;6.63;;;9.40;81.60;;;;;;4826504;29;20270;-87
2022/05/02 06:27:06;;;;;;;8.73;6.27;;;9.50;80.00;;;;;;4810232;29;20570;-86
2022/05/02 06:29:35;;;;;;;13.53;6.40;;;9.70;79.30;;;;;;4811003;29;20302;-85
2022/05/02 06:32:02;;;;;;;12.47;6.57;;;9.80;78.20;;;;;;4826612;29;20179;-85
2022/05/02 06:34:30;;;;;;;9.70;5.43;;;9.90;78.40;;;;;;4826769;29;20210;-89
2022/05/02 06:37:11;;;;;;;18.73;6.40;;;10.00;77.20;;;;;;4810851;29;20187;-89
2022/05/02 06:39:45;;;;;;;9.10;4.63;;;10.00;76.30;;;;;;4810641;29;20574;-88
2022/05/02 06:42:23;;;;;;;7.00;5.20;;;9.80;74.40;;;;;;4810777;29;20647;-89
2022/05/02 06:44:51;;;;;;;7.77;4.33;;;9.80;73.60;;;;;;4810996;29;20179;-88
2022/05/02 06:47:30;;;;;;;9.10;4.23;;;9.90;72.80;;;;;;4810625;29;20562;-89
2022/05/02 06:49:57;;;;;;;5.70;4.50;;;10.00;72.90;;;;;;4810578;29;20600;-88
2022/05/02 06:52:32;;;;;;;9.70;4.23;;;10.20;71.00;;;;;;4810134;29;20188;-87
2022/05/02 06:55:06;;;;;;;4.03;3.50;;;10.30;71.40;;;;;;4810400;29;20292;-87
2022/05/02 06:57:50;;;;;;;4.07;3.50;;;10.50;68.90;;;;;;4810079;29;20176;-88
2022/05/02 07:00:20;;;;;;;9.90;4.17;;;10.70;68.10;;;;;;4809941;29;20578;-88
2022/05/02 07:03:01;;;;;;;6.10;3.50;;;11.00;66.90;;;;;;4809929;29;20180;-88
2022/05/02 07:05:45;;;;;;;6.13;3.50;;;11.30;65.10;;;;;;4826592;29;20184;-88
2022/05/02 07:08:22;;;;;;;8.60;4.13;;;11.20;65.50;;;;;;4809934;29;20188;-88
2022/05/02 07:10:54;;;;;;;4.67;3.23;;;11.20;66.60;;;;;;4809944;29;20662;-90
2022/05/02 07:13:46;;;;;;;6.37;3.23;;;11.30;63.90;;;;;;4809987;29;20196;-88
2022/05/02 07:16:25;;;;;;;6.03;3.70;;;11.50;61.50;;;;;;4809805;29;20215;-88
2022/05/02 07:19:12;;;;;;;6.50;4.30;;;11.50;61.90;;;;;;4809585;29;20242;-87
2022/05/02 07:21:53;;;;;;;6.67;4.30;;;11.50;62.40;;;;;;4825847;29;20168;-88
2022/05/02 07:24:49;;;;;;;6.60;4.13;;;11.40;62.10;;;;;;4809573;29;20181;-89
2022/05/02 07:27:45;;;;;;;6.03;3.53;;;11.40;61.20;;;;;;4809479;29;20616;-88
2022/05/02 07:30:11;;;;;;;6.30;3.90;;;11.60;60.00;;;;;;4809411;29;20208;-88
2022/05/02 07:32:36;;;;;;;7.70;3.50;;;11.70;60.30;;;;;;4808923;29;20283;-88
2022/05/02 07:35:03;;;;;;;5.17;3.20;;;11.60;59.30;;;;;;4825190;29;20208;-89
2022/05/02 07:37:32;;;;;;;9.53;3.50;;;11.60;57.00;;;;;;4809425;29;20184;-88
2022/05/02 07:39:59;;;;;;;6.77;3.80;;;11.30;57.80;;;;;;4809390;29;20302;-88
2022/05/02 07:42:27;;;;;;;6.27;4.03;;;11.30;59.10;;;;;;4809498;29;20613;-89
2022/05/02 07:44:55;;;;;;;7.07;3.63;;;11.50;60.60;;;;;;4809120;29;20223;-88
2022/05/02 07:47:21;;;;;;;5.60;3.70;;;11.60;59.40;;;;;;4809026;29;20200;-88
2022/05/02 07:49:48;;;;;;;6.13;3.53;;;11.70;58.80;;;;;;4809397;29;20294;-87
2022/05/02 07:52:24;;;;;;;6.40;3.97;;;12.00;57.60;;;;;;4825459;29;20208;-88
2022/05/02 07:54:51;;;;;;;10.00;4.57;;;12.10;59.30;;;;;;4825279;29;20575;-86
2022/05/02 07:57:19;;;;;;;6.63;4.10;;;12.00;59.20;;;;;;4825310;29;20180;-86
2022/05/02 07:59:49;;;;;;;6.13;3.80;;;12.00;60.10;;;;;;4808563;29;20319;-87
2022/05/02 08:02:16;;;;;;;11.67;4.33;;;12.20;58.20;;;;;;4825192;29;20287;-87
2022/05/02 08:04:44;;;;;;;5.67;4.10;;;12.40;59.50;;;;;;4824957;29;20721;-86
2022/05/02 08:07:19;;;;;;;6.47;4.20;;;12.60;59.50;;;;;;4808576;29;20571;-88
2022/05/02 08:09:59;;;;;;;6.23;4.00;;;12.50;57.50;;;;;;4808356;29;20605;-86
2022/05/02 08:12:40;;;;;;;6.40;4.77;;;12.40;57.00;;;;;;4808341;29;20195;-87
2022/05/02 08:15:22;;;;;;;5.63;4.40;;;12.50;58.60;;;;;;4824819;29;20631;-86
2022/05/02 08:18:24;;;;;;;5.57;3.90;;;12.30;55.40;;;;;;4825026;29;20164;-88
2022/05/02 08:21:01;;;;;;;5.83;4.00;;;12.60;57.10;;;;;;4809617;29;20176;-88
2022/05/02 08:27:16;;;;;;;7.33;4.07;;;12.90;59.20;;;;;;4825424;29;20248;-88
2022/05/02 08:30:06;;;;;;;8.67;4.17;;;13.20;56.40;;;;;;4808472;29;20226;-88
2022/05/02 08:32:53;;;;;;;7.37;3.63;;;13.30;53.70;;;;;;4824925;29;20171;-87
2022/05/02 08:35:25;;;;;;;5.40;3.73;;;13.30;54.20;;;;;;4808432;29;20204;-87
2022/05/02 08:38:00;;;;;;;7.73;3.90;;;13.10;54.30;;;;;;4825093;29;20252;-89
2022/05/02 08:40:25;;;;;;;3.83;3.53;;;13.30;55.50;;;;;;4808319;29;20219;-89
2022/05/02 08:43:23;;;;;;;4.53;3.40;;;13.60;54.00;;;;;;4808387;29;20195;-87
2022/05/02 08:46:10;;;;;;;5.97;4.13;;;13.50;52.20;;;;;;4807585;29;20637;-89
2022/05/02 08:51:54;;;;;;;6.63;3.77;;;13.60;50.00;;;;;;4825304;29;20209;-87
2022/05/02 08:54:48;;;;;;;6.47;3.63;;;13.60;52.50;;;;;;4824524;29;20183;-88
2022/05/02 08:57:41;;;;;;;7.17;3.60;;;13.80;50.30;;;;;;4808276;29;20232;-87
2022/05/02 09:00:08;;;;;;;4.13;3.30;;;14.20;48.60;;;;;;4808420;29;20204;-88
2022/05/02 09:02:42;;;;;;;5.37;3.40;;;14.30;47.50;;;;;;4825721;29;20176;-88
2022/05/02 09:05:08;;;;;;;5.73;3.23;;;14.20;48.00;;;;;;4825518;29;20266;-87
2022/05/02 09:07:46;;;;;;;3.93;3.30;;;14.30;50.40;;;;;;4808654;29;20208;-89
2022/05/02 09:10:25;;;;;;;9.00;3.87;;;14.30;49.20;;;;;;4807992;29;20203;-88
2022/05/02 09:13:14;;;;;;;9.90;3.73;;;14.50;48.40;;;;;;4824165;29;20583;-87
2022/05/02 09:16:17;;;;;;;4.73;3.87;;;14.00;48.70;;;;;;4824072;29;20196;-87
2022/05/02 09:18:54;;;;;;;6.67;3.50;;;14.40;46.50;;;;;;4824062;29;20248;-87
2022/05/02 09:21:28;;;;;;;3.67;3.37;;;14.10;46.30;;;;;;4807619;29;20222;-88
2022/05/02 09:24:14;;;;;;;5.23;3.50;;;14.30;48.00;;;;;;4808201;29;20173;-88
2022/05/02 09:27:11;;;;;;;5.30;3.50;;;14.40;47.60;;;;;;4824182;29;20164;-87
2022/05/02 09:29:58;;;;;;;5.47;3.47;;;14.60;47.60;;;;;;4807530;29;20204;-87
2022/05/02 09:32:32;;;;;;;6.70;3.50;;;14.60;47.40;;;;;;4807681;29;20175;-88
2022/05/02 09:35:04;;;;;;;5.40;4.00;;;14.70;46.40;;;;;;4807775;29;20243;-88
2022/05/02 09:38:00;;;;;;;7.03;3.60;;;15.00;49.80;;;;;;4808352;29;20527;-88
2022/05/02 09:40:36;;;;;;;5.80;3.63;;;15.30;49.10;;;;;;4820013;29;20776;-87
2022/05/02 09:49:33;;;;;;;6.35;4.10;;;15.60;48.50;;;;;;4824875;29;20203;-86
2022/05/02 09:49:49;;;;;;;5.70;3.95;;;15.80;48.00;;;;;;4824103;29;20272;-87
2022/05/02 09:52:16;;;;;;;5.30;3.92;;;16.10;46.00;;;;;;4823806;29;20180;-89
2022/05/02 09:58:01;;;;;;;6.32;4.30;;;16.80;44.30;;;;;;4825643;29;20171;-88
2022/05/02 10:03:40;;;;;;;7.32;3.70;;;16.80;44.60;;;;;;4827433;29;20259;-87
2022/05/02 10:06:26;;;;;;;6.38;4.03;;;16.80;43.30;;;;;;4826971;29;20712;-86
2022/05/02 10:09:03;;;;;;;5.22;4.68;;;16.80;44.60;;;;;;4826904;29;20227;-87
2022/05/02 10:11:34;;;;;;;8.55;5.20;;;15.80;47.80;;;;;;4827155;29;20183;-87
2022/05/02 10:14:30;;;;;;;7.65;4.55;;;16.10;47.40;;;;;;4810573;29;20258;-88
2022/05/02 10:17:23;;;;;;;6.53;4.70;;;16.70;45.40;;;;;;4811084;29;20183;-86
2022/05/02 10:20:04;;;;;;;5.20;4.68;;;16.30;46.60;;;;;;4810458;29;20204;-88
2022/05/02 10:22:58;;;;;;;7.25;4.38;;;16.50;46.40;;;;;;4811015;29;20532;-89
2022/05/02 10:25:23;;;;;;;7.13;4.97;;;16.50;44.10;;;;;;4810347;29;20562;-88
2022/05/02 10:28:10;;;;;;;9.63;5.60;;;16.40;47.40;;;;;;4810202;29;20180;-88
2022/05/02 10:30:43;;;;;;;8.13;5.57;;;16.10;49.00;;;;;;4826733;29;20194;-88
2022/05/02 10:33:14;;;;;;;6.63;4.75;;;16.60;48.10;;;;;;4810047;29;20184;-88
2022/05/02 10:35:50;;;;;;;6.32;5.10;;;16.20;47.30;;;;;;4826285;29;20566;-86
2022/05/02 10:38:25;;;;;;;6.28;5.35;;;16.50;45.40;;;;;;4826557;29;20168;-88
2022/05/02 10:40:56;;;;;;;6.35;5.13;;;16.60;46.20;;;;;;4810180;29;20294;-87
2022/05/02 10:43:26;;;;;;;8.23;5.80;;;17.10;46.90;;;;;;4810010;29;20169;-87
2022/05/02 10:45:52;;;;;;;8.68;5.53;;;17.40;44.00;;;;;;4826588;29;20180;-87
2022/05/02 10:48:18;;;;;;;7.60;4.80;;;17.70;42.90;;;;;;4809890;29;20192;-88
2022/05/02 10:51:11;;;;;;;8.38;4.75;;;18.10;43.60;;;;;;4809893;29;20195;-88
2022/05/02 10:54:26;;;;;;;7.20;4.75;;;18.30;45.00;;;;;;4809816;29;20207;-88
2022/05/02 10:56:58;;;;;;;7.57;5.05;;;17.80;45.40;;;;;;4790730;29;20188;-89
2022/05/02 10:59:29;;;;;;;9.15;4.95;;;18.00;43.70;;;;;;4790911;29;20231;-88
2022/05/02 11:02:35;;;;;;;6.47;5.30;;;18.30;43.50;;;;;;4803232;29;20200;-87
2022/05/02 11:05:14;;;;;;;11.32;5.22;;;18.80;41.30;;;;;;4826574;29;20160;-87
2022/05/02 11:07:45;;;;;;;9.07;4.82;;;18.80;41.70;;;;;;4809926;29;20176;-87
2022/05/02 11:10:13;;;;;;;6.82;5.60;;;19.00;42.90;;;;;;4810740;29;20208;-87
2022/05/02 11:12:51;;;;;;;7.32;5.22;;;18.20;45.80;;;;;;4809784;29;20180;-87
2022/05/02 11:15:20;;;;;;;8.13;4.95;;;17.70;46.20;;;;;;4825671;29;20274;-89
2022/05/02 11:18:00;;;;;;;11.15;5.93;;;18.50;45.20;;;;;;4826509;29;20250;-88
2022/05/02 11:20:45;;;;;;;5.38;4.50;;;18.80;41.60;;;;;;4809391;29;20235;-87
2022/05/02 11:23:39;;;;;;;6.45;4.68;;;18.70;42.60;;;;;;4809351;29;20186;-86
2022/05/02 11:26:32;;;;;;;10.45;5.18;;;19.30;41.30;;;;;;4809280;29;20176;-88
2022/05/02 11:29:17;;;;;;;7.05;5.07;;;19.50;40.80;;;;;;4809178;29;20200;-88
2022/05/02 11:31:57;;;;;;;4.85;4.38;;;19.60;41.60;;;;;;4809165;29;20663;-88
2022/05/02 11:34:41;;;;;;;10.88;4.80;;;18.20;42.20;;;;;;4809127;29;20232;-88
2022/05/02 11:37:24;;;;;;;18.55;6.10;;;17.70;44.90;;;;;;4825445;29;20243;-87
2022/05/02 11:39:57;;;;;;;9.98;4.88;;;17.70;43.90;;;;;;4825499;29;20247;-87
2022/05/02 11:42:27;;;;;;;14.20;4.68;;;18.10;43.60;;;;;;4825306;29;20213;-87
2022/05/02 11:45:08;;;;;;;4.65;4.22;;;18.20;44.30;;;;;;4808898;29;20176;-87
2022/05/02 11:47:39;;;;;;;7.47;4.65;;;18.00;43.40;;;;;;4809120;29;20196;-88
2022/05/02 11:50:07;;;;;;;7.93;4.60;;;18.20;45.00;;;;;;4808878;29;20303;-88
2022/05/02 11:52:38;;;;;;;17.60;6.35;;;18.10;43.90;;;;;;4825197;29;20547;-89
2022/05/02 11:55:08;;;;;;;8.02;4.32;;;17.80;44.80;;;;;;4825166;29;20204;-89
2022/05/02 11:57:53;;;;;;;14.52;5.55;;;17.90;44.00;;;;;;4809891;29;20616;-88
2022/05/02 12:00:19;;;;;;;6.07;4.15;;;18.30;42.90;;;;;;4825367;29;20287;-88
2022/05/02 12:02:51;;;;;;;5.93;4.00;;;18.70;42.10;;;;;;4808654;29;20705;-88
2022/05/02 12:05:39;;;;;;;13.38;4.43;;;18.50;40.30;;;;;;4808742;29;20180;-89
2022/05/02 12:08:07;;;;;;;6.97;3.78;;;18.40;40.40;;;;;;4808622;29;20187;-88
2022/05/02 12:10:33;;;;;;;4.88;4.38;;;18.30;41.50;;;;;;4808529;29;20211;-86
2022/05/02 12:12:59;;;;;;;4.85;3.88;;;18.30;42.90;;;;;;4825207;29;20643;-86
2022/05/02 12:15:25;;;;;;;7.15;3.85;;;18.40;41.90;;;;;;4808368;29;20593;-87
2022/05/02 12:17:54;;;;;;;6.95;4.32;;;18.20;44.50;;;;;;4808529;29;20180;-87
2022/05/02 12:20:40;;;;;;;9.50;5.03;;;18.10;45.20;;;;;;4808024;29;20196;-88
2022/05/02 12:23:16;;;;;;;5.70;4.35;;;18.20;43.10;;;;;;4808283;29;20207;-88
2022/05/02 12:25:49;;;;;;;7.78;4.03;;;18.50;44.00;;;;;;4808312;29;20180;-88
2022/05/02 12:28:20;;;;;;;7.82;4.13;;;19.10;41.30;;;;;;4808114;29;20198;-88
2022/05/02 12:30:52;;;;;;;4.63;4.10;;;18.70;42.50;;;;;;4824624;29;20197;-87
2022/05/02 12:33:20;;;;;;;7.82;3.97;;;18.20;43.50;;;;;;4808190;29;20655;-88
2022/05/02 12:35:46;;;;;;;11.60;4.72;;;18.50;43.70;;;;;;4808077;29;20725;-90
2022/05/02 12:38:17;;;;;;;5.85;4.30;;;18.70;40.80;;;;;;4808307;29;20195;-88
2022/05/02 12:40:51;;;;;;;4.75;4.13;;;18.20;45.10;;;;;;4808049;29;20291;-89
2022/05/02 12:43:44;;;;;;;6.47;4.28;;;18.80;43.90;;;;;;4808090;29;20601;-88
2022/05/02 12:46:10;;;;;;;5.13;4.32;;;19.20;42.60;;;;;;4822398;29;20231;-88
2022/05/02 12:48:56;;;;;;;5.25;4.07;;;19.30;42.20;;;;;;4808043;29;20771;-88
2022/05/02 12:51:27;;;;;;;6.45;4.28;;;18.70;40.30;;;;;;4824515;29;20172;-88
2022/05/02 12:54:09;;;;;;;6.97;4.32;;;18.40;43.20;;;;;;4808120;29;20183;-88
2022/05/02 13:00:30;;;;;;;5.53;4.10;;;18.60;43.00;;;;;;4824337;29;20252;-89
2022/05/02 13:02:33;;;;;;;9.80;4.47;;;18.90;43.30;;;;;;4824556;29;20250;-88
2022/05/02 13:05:16;;;;;;;4.95;3.22;;;18.00;43.00;;;;;;4807920;29;20674;-88
2022/05/02 13:07:50;;;;;;;6.82;4.30;;;19.00;42.20;;;;;;4824266;29;20168;-88
2022/05/02 13:10:20;;;;;;;5.65;4.13;;;18.70;42.80;;;;;;4824344;29;20204;-88
2022/05/02 13:13:07;;;;;;;8.13;4.55;;;18.50;43.40;;;;;;4807948;29;20188;-88
2022/05/02 13:15:42;;;;;;;5.72;4.25;;;18.60;44.10;;;;;;4824031;29;20751;-88
2022/05/02 13:18:20;;;;;;;7.22;4.30;;;18.90;43.10;;;;;;4824657;29;20258;-89
2022/05/02 13:21:12;;;;;;;6.05;4.20;;;19.50;42.60;;;;;;4807827;29;20673;-88
2022/05/02 13:23:39;;;;;;;5.35;3.85;;;18.80;40.90;;;;;;4807772;29;20190;-88
2022/05/02 13:26:22;;;;;;;8.43;3.60;;;19.50;40.70;;;;;;4807725;29;20196;-88
2022/05/02 13:29:14;;;;;;;5.40;4.18;;;19.20;41.50;;;;;;4807638;29;20261;-88
2022/05/02 13:31:47;;;;;;;9.10;4.03;;;18.90;39.50;;;;;;4826131;29;20176;-88
2022/05/02 13:34:51;;;;;;;5.60;4.10;;;19.20;41.90;;;;;;4827384;29;20189;-88
2022/05/02 13:37:44;;;;;;;4.75;3.40;;;19.50;40.20;;;;;;4809930;29;20183;-88
2022/05/02 13:40:14;;;;;;;4.40;3.67;;;19.30;41.00;;;;;;4827273;29;20234;-88
2022/05/02 13:43:01;;;;;;;4.82;3.72;;;19.70;40.90;;;;;;4827267;29;20247;-88
2022/05/02 13:45:46;;;;;;;7.55;3.33;;;19.20;39.40;;;;;;4811206;29;20625;-88
2022/05/02 13:48:25;;;;;;;4.25;3.40;;;18.80;41.30;;;;;;4827144;29;20179;-87
2022/05/02 13:51:20;;;;;;;3.90;3.28;;;18.90;40.50;;;;;;4811695;29;20176;-89